sensor_id;sensor_type;location;lat;lon;timestamp;temperature;humidity
25280;DHT22;13225;47.804;12.116;2023-06-22T00:01:23;20.40;99.90
25280;DHT22;13225;47.804;12.116;2023-06-22T00:03:49;20.30;99.90
25280;DHT22;13225;47.804;12.116;2023-06-22T00:06:15;20.10;99.90
25280;DHT22;13225;47.804;12.116;2023-06-22T00:08:40;20.00;99.90
25280;DHT22;13225;47.804;12.116;2023-06-22T00:11:06;19.90;99.90
25280;DHT22;13225;47.804;12.116;2023-06-22T00:13:31;19.80;99.90
25280;DHT22;13225;47.804;12.116;2023-06-22T00:15:57;19.80;99.90
25280;DHT22;13225;47.804;12.116;2023-06-22T00:18:23;19.70;99.90
25280;DHT22;13225;47.804;12.116;2023-06-22T00:20:55;19.80;99.90
25280;DHT22;13225;47.804;12.116;2023-06-22T00:23:23;19.70;99.90
25280;DHT22;13225;47.804;12.116;2023-06-22T00:25:49;19.80;99.90
25280;DHT22;13225;47.804;12.116;2023-06-22T00:28:15;20.00;99.90
25280;DHT22;13225;47.804;12.116;2023-06-22T00:30:40;20.10;99.90
25280;DHT22;13225;47.804;12.116;2023-06-22T00:33:06;20.20;99.90
25280;DHT22;13225;47.804;12.116;2023-06-22T00:35:33;20.20;99.90
25280;DHT22;13225;47.804;12.116;2023-06-22T00:38:00;20.20;99.90
25280;DHT22;13225;47.804;12.116;2023-06-22T00:40:33;20.20;99.90
25280;DHT22;13225;47.804;12.116;2023-06-22T00:42:59;20.30;99.90
25280;DHT22;13225;47.804;12.116;2023-06-22T00:45:25;20.30;99.90
25280;DHT22;13225;47.804;12.116;2023-06-22T00:47:56;20.20;99.90
25280;DHT22;13225;47.804;12.116;2023-06-22T00:50:23;20.20;99.90
25280;DHT22;13225;47.804;12.116;2023-06-22T00:52:57;20.20;99.90
25280;DHT22;13225;47.804;12.116;2023-06-22T00:55:25;20.20;99.90
25280;DHT22;13225;47.804;12.116;2023-06-22T00:57:51;20.30;99.90
25280;DHT22;13225;47.804;12.116;2023-06-22T01:00:21;20.30;99.90
25280;DHT22;13225;47.804;12.116;2023-06-22T01:02:50;20.30;99.90
25280;DHT22;13225;47.804;12.116;2023-06-22T01:05:19;20.30;99.90
25280;DHT22;13225;47.804;12.116;2023-06-22T01:11:01;20.20;99.90
25280;DHT22;13225;47.804;12.116;2023-06-22T01:16:17;20.10;99.90
25280;DHT22;13225;47.804;12.116;2023-06-22T01:18:45;20.00;99.90
25280;DHT22;13225;47.804;12.116;2023-06-22T01:21:15;20.00;99.90
25280;DHT22;13225;47.804;12.116;2023-06-22T01:29:24;19.60;99.90
25280;DHT22;13225;47.804;12.116;2023-06-22T01:31:53;19.50;99.90
25280;DHT22;13225;47.804;12.116;2023-06-22T01:34:20;19.40;99.90
25280;DHT22;13225;47.804;12.116;2023-06-22T01:36:46;19.20;99.90
25280;DHT22;13225;47.804;12.116;2023-06-22T01:39:13;19.10;99.90
25280;DHT22;13225;47.804;12.116;2023-06-22T01:41:40;18.90;99.90
25280;DHT22;13225;47.804;12.116;2023-06-22T01:44:08;18.90;99.90
25280;DHT22;13225;47.804;12.116;2023-06-22T01:46:35;18.80;99.90
25280;DHT22;13225;47.804;12.116;2023-06-22T01:49:05;18.70;99.90
25280;DHT22;13225;47.804;12.116;2023-06-22T01:51:31;18.70;99.90
25280;DHT22;13225;47.804;12.116;2023-06-22T01:53:57;18.60;99.90
25280;DHT22;13225;47.804;12.116;2023-06-22T01:56:22;18.60;99.90
25280;DHT22;13225;47.804;12.116;2023-06-22T01:58:55;18.70;99.90
25280;DHT22;13225;47.804;12.116;2023-06-22T02:01:26;18.80;99.90
25280;DHT22;13225;47.804;12.116;2023-06-22T02:04:13;19.00;99.90
25280;DHT22;13225;47.804;12.116;2023-06-22T02:06:42;19.00;99.90
25280;DHT22;13225;47.804;12.116;2023-06-22T02:09:17;19.00;99.90
25280;DHT22;13225;47.804;12.116;2023-06-22T02:11:46;19.00;99.90
25280;DHT22;13225;47.804;12.116;2023-06-22T02:14:13;18.90;99.90
25280;DHT22;13225;47.804;12.116;2023-06-22T02:16:41;18.90;99.90
25280;DHT22;13225;47.804;12.116;2023-06-22T02:19:07;18.80;99.90
25280;DHT22;13225;47.804;12.116;2023-06-22T02:21:33;18.70;99.90
25280;DHT22;13225;47.804;12.116;2023-06-22T02:23:59;18.70;99.90
25280;DHT22;13225;47.804;12.116;2023-06-22T02:26:27;18.70;99.90
25280;DHT22;13225;47.804;12.116;2023-06-22T02:28:53;18.70;99.90
25280;DHT22;13225;47.804;12.116;2023-06-22T02:31:19;18.70;99.90
25280;DHT22;13225;47.804;12.116;2023-06-22T02:33:45;18.60;99.90
25280;DHT22;13225;47.804;12.116;2023-06-22T02:36:11;18.60;99.90
25280;DHT22;13225;47.804;12.116;2023-06-22T02:38:38;18.60;99.90
25280;DHT22;13225;47.804;12.116;2023-06-22T02:41:05;18.50;99.90
25280;DHT22;13225;47.804;12.116;2023-06-22T02:43:32;18.40;99.90
25280;DHT22;13225;47.804;12.116;2023-06-22T02:45:57;18.30;99.90
25280;DHT22;13225;47.804;12.116;2023-06-22T02:48:23;18.30;99.90
25280;DHT22;13225;47.804;12.116;2023-06-22T02:50:48;18.30;99.90
25280;DHT22;13225;47.804;12.116;2023-06-22T02:53:14;18.30;99.90
25280;DHT22;13225;47.804;12.116;2023-06-22T02:55:39;18.30;99.90
25280;DHT22;13225;47.804;12.116;2023-06-22T02:58:05;18.40;99.90
25280;DHT22;13225;47.804;12.116;2023-06-22T03:00:31;18.40;99.90
25280;DHT22;13225;47.804;12.116;2023-06-22T03:02:57;18.50;99.90
25280;DHT22;13225;47.804;12.116;2023-06-22T03:05:23;18.50;99.90
25280;DHT22;13225;47.804;12.116;2023-06-22T03:07:49;18.40;99.90
25280;DHT22;13225;47.804;12.116;2023-06-22T03:10:15;18.30;99.90
25280;DHT22;13225;47.804;12.116;2023-06-22T03:12:41;18.30;99.90
25280;DHT22;13225;47.804;12.116;2023-06-22T03:15:09;18.30;99.90
25280;DHT22;13225;47.804;12.116;2023-06-22T03:17:35;18.20;99.90
25280;DHT22;13225;47.804;12.116;2023-06-22T03:20:01;18.20;99.90
25280;DHT22;13225;47.804;12.116;2023-06-22T03:22:34;18.20;99.90
25280;DHT22;13225;47.804;12.116;2023-06-22T03:24:59;18.10;99.90
25280;DHT22;13225;47.804;12.116;2023-06-22T03:27:25;18.20;99.90
25280;DHT22;13225;47.804;12.116;2023-06-22T03:29:50;18.20;99.90
25280;DHT22;13225;47.804;12.116;2023-06-22T03:32:16;18.20;99.90
25280;DHT22;13225;47.804;12.116;2023-06-22T03:34:41;18.20;99.90
25280;DHT22;13225;47.804;12.116;2023-06-22T03:37:13;18.10;99.90
25280;DHT22;13225;47.804;12.116;2023-06-22T03:39:39;18.20;99.90
25280;DHT22;13225;47.804;12.116;2023-06-22T03:42:05;18.20;99.90
25280;DHT22;13225;47.804;12.116;2023-06-22T03:44:31;18.30;99.90
25280;DHT22;13225;47.804;12.116;2023-06-22T03:46:56;18.40;99.90
25280;DHT22;13225;47.804;12.116;2023-06-22T03:49:22;18.40;99.90
25280;DHT22;13225;47.804;12.116;2023-06-22T03:51:47;18.50;99.90
25280;DHT22;13225;47.804;12.116;2023-06-22T03:54:13;18.60;99.90
25280;DHT22;13225;47.804;12.116;2023-06-22T03:56:39;18.70;99.90
25280;DHT22;13225;47.804;12.116;2023-06-22T03:59:04;18.80;99.90
25280;DHT22;13225;47.804;12.116;2023-06-22T04:01:30;19.00;99.90
25280;DHT22;13225;47.804;12.116;2023-06-22T04:03:55;19.20;99.90
25280;DHT22;13225;47.804;12.116;2023-06-22T04:06:21;19.50;99.90
25280;DHT22;13225;47.804;12.116;2023-06-22T04:08:48;19.60;99.90
25280;DHT22;13225;47.804;12.116;2023-06-22T04:11:16;19.80;99.90
25280;DHT22;13225;47.804;12.116;2023-06-22T04:13:43;19.90;99.90
25280;DHT22;13225;47.804;12.116;2023-06-22T04:16:09;20.20;99.90
25280;DHT22;13225;47.804;12.116;2023-06-22T04:18:34;20.40;99.90
25280;DHT22;13225;47.804;12.116;2023-06-22T04:21:00;20.50;99.90
25280;DHT22;13225;47.804;12.116;2023-06-22T04:23:25;20.70;99.90
25280;DHT22;13225;47.804;12.116;2023-06-22T04:25:51;20.90;99.90
25280;DHT22;13225;47.804;12.116;2023-06-22T04:28:17;21.00;99.90
25280;DHT22;13225;47.804;12.116;2023-06-22T04:30:42;21.10;99.90
25280;DHT22;13225;47.804;12.116;2023-06-22T04:33:15;21.10;99.90
25280;DHT22;13225;47.804;12.116;2023-06-22T04:35:40;21.20;99.90
25280;DHT22;13225;47.804;12.116;2023-06-22T04:38:09;21.20;99.90
25280;DHT22;13225;47.804;12.116;2023-06-22T04:40:34;21.30;99.90
25280;DHT22;13225;47.804;12.116;2023-06-22T04:43:00;21.10;99.90
25280;DHT22;13225;47.804;12.116;2023-06-22T04:45:28;21.10;99.90
25280;DHT22;13225;47.804;12.116;2023-06-22T04:47:54;21.20;99.90
25280;DHT22;13225;47.804;12.116;2023-06-22T04:50:20;21.30;99.90
25280;DHT22;13225;47.804;12.116;2023-06-22T04:52:47;21.70;99.90
25280;DHT22;13225;47.804;12.116;2023-06-22T04:55:14;21.70;99.90
25280;DHT22;13225;47.804;12.116;2023-06-22T04:57:44;22.10;99.90
25280;DHT22;13225;47.804;12.116;2023-06-22T05:00:14;22.30;99.90
25280;DHT22;13225;47.804;12.116;2023-06-22T05:02:43;22.50;99.90
25280;DHT22;13225;47.804;12.116;2023-06-22T05:05:09;22.70;99.90
25280;DHT22;13225;47.804;12.116;2023-06-22T05:07:41;23.00;99.90
25280;DHT22;13225;47.804;12.116;2023-06-22T05:10:11;23.00;99.90
25280;DHT22;13225;47.804;12.116;2023-06-22T05:12:41;22.90;99.90
25280;DHT22;13225;47.804;12.116;2023-06-22T05:15:07;23.30;99.90
25280;DHT22;13225;47.804;12.116;2023-06-22T05:17:34;23.40;99.90
25280;DHT22;13225;47.804;12.116;2023-06-22T05:20:00;23.50;99.90
25280;DHT22;13225;47.804;12.116;2023-06-22T05:22:26;24.10;99.90
25280;DHT22;13225;47.804;12.116;2023-06-22T05:24:51;24.30;99.90
25280;DHT22;13225;47.804;12.116;2023-06-22T05:27:17;24.40;99.90
25280;DHT22;13225;47.804;12.116;2023-06-22T05:29:43;24.10;99.90
25280;DHT22;13225;47.804;12.116;2023-06-22T05:32:08;23.50;99.90
25280;DHT22;13225;47.804;12.116;2023-06-22T05:34:34;23.30;99.90
25280;DHT22;13225;47.804;12.116;2023-06-22T05:37:00;23.20;99.90
25280;DHT22;13225;47.804;12.116;2023-06-22T05:39:26;23.10;99.90
25280;DHT22;13225;47.804;12.116;2023-06-22T05:41:52;23.00;99.90
25280;DHT22;13225;47.804;12.116;2023-06-22T05:44:18;22.90;99.90
25280;DHT22;13225;47.804;12.116;2023-06-22T05:46:44;22.70;99.90
25280;DHT22;13225;47.804;12.116;2023-06-22T05:49:12;22.80;99.90
25280;DHT22;13225;47.804;12.116;2023-06-22T05:51:37;22.70;99.90
25280;DHT22;13225;47.804;12.116;2023-06-22T05:54:03;22.60;99.90
25280;DHT22;13225;47.804;12.116;2023-06-22T05:56:28;22.70;99.90
25280;DHT22;13225;47.804;12.116;2023-06-22T05:58:54;22.60;99.90
25280;DHT22;13225;47.804;12.116;2023-06-22T06:01:20;22.70;99.90
25280;DHT22;13225;47.804;12.116;2023-06-22T06:03:45;22.80;99.90
25280;DHT22;13225;47.804;12.116;2023-06-22T06:06:11;23.00;99.90
25280;DHT22;13225;47.804;12.116;2023-06-22T06:08:38;23.00;99.90
25280;DHT22;13225;47.804;12.116;2023-06-22T06:11:04;22.90;99.90
25280;DHT22;13225;47.804;12.116;2023-06-22T06:13:29;23.00;99.90
25280;DHT22;13225;47.804;12.116;2023-06-22T06:15:56;23.00;99.90
25280;DHT22;13225;47.804;12.116;2023-06-22T06:18:22;23.00;99.90
25280;DHT22;13225;47.804;12.116;2023-06-22T06:20:48;23.00;99.90
25280;DHT22;13225;47.804;12.116;2023-06-22T06:23:14;23.20;99.90
25280;DHT22;13225;47.804;12.116;2023-06-22T06:25:40;22.90;99.90
25280;DHT22;13225;47.804;12.116;2023-06-22T06:28:05;22.90;99.90
25280;DHT22;13225;47.804;12.116;2023-06-22T06:30:31;23.10;99.90
25280;DHT22;13225;47.804;12.116;2023-06-22T06:32:57;23.20;99.90
25280;DHT22;13225;47.804;12.116;2023-06-22T06:35:22;23.00;99.90
25280;DHT22;13225;47.804;12.116;2023-06-22T06:37:49;23.10;99.90
25280;DHT22;13225;47.804;12.116;2023-06-22T06:40:16;23.40;99.90
25280;DHT22;13225;47.804;12.116;2023-06-22T06:42:44;23.50;99.90
25280;DHT22;13225;47.804;12.116;2023-06-22T06:45:12;23.60;99.90
25280;DHT22;13225;47.804;12.116;2023-06-22T06:47:38;23.70;99.90
25280;DHT22;13225;47.804;12.116;2023-06-22T06:50:05;23.90;99.90
25280;DHT22;13225;47.804;12.116;2023-06-22T06:52:31;24.10;99.90
25280;DHT22;13225;47.804;12.116;2023-06-22T06:54:56;24.00;99.90
25280;DHT22;13225;47.804;12.116;2023-06-22T06:57:22;24.10;99.90
25280;DHT22;13225;47.804;12.116;2023-06-22T06:59:48;24.30;99.90
25280;DHT22;13225;47.804;12.116;2023-06-22T07:02:15;24.40;99.90
25280;DHT22;13225;47.804;12.116;2023-06-22T07:04:41;24.10;99.90
25280;DHT22;13225;47.804;12.116;2023-06-22T07:07:07;24.00;99.90
25280;DHT22;13225;47.804;12.116;2023-06-22T07:09:32;24.10;99.90
25280;DHT22;13225;47.804;12.116;2023-06-22T07:11:58;24.40;99.90
25280;DHT22;13225;47.804;12.116;2023-06-22T07:14:23;24.30;99.90
25280;DHT22;13225;47.804;12.116;2023-06-22T07:16:49;24.50;99.90
25280;DHT22;13225;47.804;12.116;2023-06-22T07:19:15;24.50;99.90
25280;DHT22;13225;47.804;12.116;2023-06-22T07:21:40;24.70;99.90
25280;DHT22;13225;47.804;12.116;2023-06-22T07:24:06;24.60;99.90
25280;DHT22;13225;47.804;12.116;2023-06-22T07:26:32;24.70;99.90
25280;DHT22;13225;47.804;12.116;2023-06-22T07:28:58;24.90;99.90
25280;DHT22;13225;47.804;12.116;2023-06-22T07:31:27;25.00;99.90
25280;DHT22;13225;47.804;12.116;2023-06-22T07:33:52;25.20;99.90
25280;DHT22;13225;47.804;12.116;2023-06-22T07:36:18;25.20;99.90
25280;DHT22;13225;47.804;12.116;2023-06-22T07:38:44;25.40;99.90
25280;DHT22;13225;47.804;12.116;2023-06-22T07:41:09;25.40;99.90
25280;DHT22;13225;47.804;12.116;2023-06-22T07:43:35;25.40;99.90
25280;DHT22;13225;47.804;12.116;2023-06-22T07:46:03;25.50;99.90
25280;DHT22;13225;47.804;12.116;2023-06-22T07:48:29;25.40;99.90
25280;DHT22;13225;47.804;12.116;2023-06-22T07:50:55;25.20;99.90
25280;DHT22;13225;47.804;12.116;2023-06-22T07:53:21;25.30;99.90
25280;DHT22;13225;47.804;12.116;2023-06-22T07:55:47;25.40;99.90
25280;DHT22;13225;47.804;12.116;2023-06-22T07:58:13;25.40;99.90
25280;DHT22;13225;47.804;12.116;2023-06-22T08:00:39;25.60;99.90
25280;DHT22;13225;47.804;12.116;2023-06-22T08:03:04;25.50;99.90
25280;DHT22;13225;47.804;12.116;2023-06-22T08:05:31;25.50;99.90
25280;DHT22;13225;47.804;12.116;2023-06-22T08:07:57;25.50;99.90
25280;DHT22;13225;47.804;12.116;2023-06-22T08:10:23;25.60;99.90
25280;DHT22;13225;47.804;12.116;2023-06-22T08:12:49;25.70;99.90
25280;DHT22;13225;47.804;12.116;2023-06-22T08:15:14;25.80;99.90
25280;DHT22;13225;47.804;12.116;2023-06-22T08:17:40;25.90;99.90
25280;DHT22;13225;47.804;12.116;2023-06-22T08:20:07;26.00;99.90
25280;DHT22;13225;47.804;12.116;2023-06-22T08:22:38;25.90;99.90
25280;DHT22;13225;47.804;12.116;2023-06-22T08:25:04;26.00;99.90
25280;DHT22;13225;47.804;12.116;2023-06-22T08:27:30;26.00;99.90
25280;DHT22;13225;47.804;12.116;2023-06-22T08:30:00;26.00;99.90
25280;DHT22;13225;47.804;12.116;2023-06-22T08:32:29;26.00;99.90
25280;DHT22;13225;47.804;12.116;2023-06-22T08:34:55;26.20;99.90
25280;DHT22;13225;47.804;12.116;2023-06-22T08:37:22;26.40;99.90
25280;DHT22;13225;47.804;12.116;2023-06-22T08:39:50;26.30;99.90
25280;DHT22;13225;47.804;12.116;2023-06-22T08:42:16;26.40;99.90
25280;DHT22;13225;47.804;12.116;2023-06-22T08:44:41;26.60;99.90
25280;DHT22;13225;47.804;12.116;2023-06-22T08:47:07;26.80;99.90
25280;DHT22;13225;47.804;12.116;2023-06-22T08:49:32;27.00;99.90
25280;DHT22;13225;47.804;12.116;2023-06-22T08:51:58;27.10;99.90
25280;DHT22;13225;47.804;12.116;2023-06-22T08:54:24;27.20;99.90
25280;DHT22;13225;47.804;12.116;2023-06-22T08:56:49;27.20;99.90
25280;DHT22;13225;47.804;12.116;2023-06-22T08:59:15;27.30;99.90
25280;DHT22;13225;47.804;12.116;2023-06-22T09:01:40;27.50;99.90
25280;DHT22;13225;47.804;12.116;2023-06-22T09:04:06;27.50;99.90
25280;DHT22;13225;47.804;12.116;2023-06-22T09:06:34;27.40;99.90
25280;DHT22;13225;47.804;12.116;2023-06-22T09:09:00;27.40;99.90
25280;DHT22;13225;47.804;12.116;2023-06-22T09:11:25;27.40;99.90
25280;DHT22;13225;47.804;12.116;2023-06-22T09:13:51;27.40;99.90
25280;DHT22;13225;47.804;12.116;2023-06-22T09:16:19;27.50;99.90
25280;DHT22;13225;47.804;12.116;2023-06-22T09:18:47;27.70;99.90
25280;DHT22;13225;47.804;12.116;2023-06-22T09:21:13;27.90;99.90
25280;DHT22;13225;47.804;12.116;2023-06-22T09:23:38;28.10;99.90
25280;DHT22;13225;47.804;12.116;2023-06-22T09:26:04;28.10;99.90
25280;DHT22;13225;47.804;12.116;2023-06-22T09:28:30;28.10;99.90
25280;DHT22;13225;47.804;12.116;2023-06-22T09:30:55;28.20;99.90
25280;DHT22;13225;47.804;12.116;2023-06-22T09:33:24;28.30;99.90
25280;DHT22;13225;47.804;12.116;2023-06-22T09:35:49;28.30;99.90
25280;DHT22;13225;47.804;12.116;2023-06-22T09:38:16;28.40;99.90
25280;DHT22;13225;47.804;12.116;2023-06-22T09:40:42;28.40;99.90
25280;DHT22;13225;47.804;12.116;2023-06-22T09:43:08;28.50;99.90
25280;DHT22;13225;47.804;12.116;2023-06-22T09:45:33;28.90;99.90
25280;DHT22;13225;47.804;12.116;2023-06-22T09:47:59;29.00;99.90
25280;DHT22;13225;47.804;12.116;2023-06-22T09:50:24;29.20;99.90
25280;DHT22;13225;47.804;12.116;2023-06-22T09:52:50;29.30;99.90
25280;DHT22;13225;47.804;12.116;2023-06-22T09:55:20;29.40;99.90
25280;DHT22;13225;47.804;12.116;2023-06-22T09:57:46;29.50;99.90
25280;DHT22;13225;47.804;12.116;2023-06-22T10:00:12;29.80;99.90
25280;DHT22;13225;47.804;12.116;2023-06-22T10:02:39;30.00;99.90
25280;DHT22;13225;47.804;12.116;2023-06-22T10:05:05;29.90;99.90
25280;DHT22;13225;47.804;12.116;2023-06-22T10:07:30;30.00;99.90
25280;DHT22;13225;47.804;12.116;2023-06-22T10:09:56;30.20;99.90
25280;DHT22;13225;47.804;12.116;2023-06-22T10:12:21;30.40;99.90
25280;DHT22;13225;47.804;12.116;2023-06-22T10:14:47;30.50;99.90
25280;DHT22;13225;47.804;12.116;2023-06-22T10:17:12;30.70;99.90
25280;DHT22;13225;47.804;12.116;2023-06-22T10:19:38;30.90;99.90
25280;DHT22;13225;47.804;12.116;2023-06-22T10:22:05;31.10;99.90
25280;DHT22;13225;47.804;12.116;2023-06-22T10:24:30;30.80;99.90
25280;DHT22;13225;47.804;12.116;2023-06-22T10:26:56;30.50;99.90
25280;DHT22;13225;47.804;12.116;2023-06-22T10:29:21;30.50;99.90
25280;DHT22;13225;47.804;12.116;2023-06-22T10:31:47;30.40;99.90
25280;DHT22;13225;47.804;12.116;2023-06-22T10:34:13;30.50;99.90
25280;DHT22;13225;47.804;12.116;2023-06-22T10:36:38;30.60;99.90
25280;DHT22;13225;47.804;12.116;2023-06-22T10:39:04;30.70;99.90
25280;DHT22;13225;47.804;12.116;2023-06-22T10:41:29;30.70;99.90
25280;DHT22;13225;47.804;12.116;2023-06-22T10:43:56;30.60;99.90
25280;DHT22;13225;47.804;12.116;2023-06-22T10:46:23;30.70;99.90
25280;DHT22;13225;47.804;12.116;2023-06-22T10:48:49;30.70;99.90
25280;DHT22;13225;47.804;12.116;2023-06-22T10:51:15;30.90;99.90
25280;DHT22;13225;47.804;12.116;2023-06-22T10:53:40;30.80;99.90
25280;DHT22;13225;47.804;12.116;2023-06-22T10:56:06;30.90;99.90
25280;DHT22;13225;47.804;12.116;2023-06-22T10:58:32;31.20;99.90
25280;DHT22;13225;47.804;12.116;2023-06-22T11:00:57;31.50;99.90
25280;DHT22;13225;47.804;12.116;2023-06-22T11:03:24;31.50;99.90
25280;DHT22;13225;47.804;12.116;2023-06-22T11:05:50;31.50;99.90
25280;DHT22;13225;47.804;12.116;2023-06-22T11:08:15;31.80;99.90
25280;DHT22;13225;47.804;12.116;2023-06-22T11:10:41;32.00;99.90
25280;DHT22;13225;47.804;12.116;2023-06-22T11:13:06;32.00;99.90
25280;DHT22;13225;47.804;12.116;2023-06-22T11:15:35;32.00;99.90
25280;DHT22;13225;47.804;12.116;2023-06-22T11:18:01;31.70;99.90
25280;DHT22;13225;47.804;12.116;2023-06-22T11:20:26;31.80;99.90
25280;DHT22;13225;47.804;12.116;2023-06-22T11:22:52;31.80;99.90
25280;DHT22;13225;47.804;12.116;2023-06-22T11:25:18;31.60;99.90
25280;DHT22;13225;47.804;12.116;2023-06-22T11:27:43;31.80;99.90
25280;DHT22;13225;47.804;12.116;2023-06-22T11:30:09;32.10;99.90
25280;DHT22;13225;47.804;12.116;2023-06-22T11:32:35;32.60;99.90
25280;DHT22;13225;47.804;12.116;2023-06-22T11:35:01;32.80;99.90
25280;DHT22;13225;47.804;12.116;2023-06-22T11:37:26;32.90;99.90
25280;DHT22;13225;47.804;12.116;2023-06-22T11:39:52;33.00;99.90
25280;DHT22;13225;47.804;12.116;2023-06-22T11:42:20;33.20;99.90
25280;DHT22;13225;47.804;12.116;2023-06-22T11:44:45;33.60;99.90
25280;DHT22;13225;47.804;12.116;2023-06-22T11:47:11;33.90;99.90
25280;DHT22;13225;47.804;12.116;2023-06-22T11:49:37;34.00;99.20
25280;DHT22;13225;47.804;12.116;2023-06-22T11:52:02;33.90;98.50
25280;DHT22;13225;47.804;12.116;2023-06-22T11:54:28;34.00;98.70
25280;DHT22;13225;47.804;12.116;2023-06-22T11:56:54;34.10;97.50
25280;DHT22;13225;47.804;12.116;2023-06-22T11:59:19;34.10;96.90
25280;DHT22;13225;47.804;12.116;2023-06-22T12:01:46;34.40;95.70
25280;DHT22;13225;47.804;12.116;2023-06-22T12:04:12;34.70;95.00
25280;DHT22;13225;47.804;12.116;2023-06-22T12:06:38;34.60;95.20
25280;DHT22;13225;47.804;12.116;2023-06-22T12:09:07;34.80;94.70
25280;DHT22;13225;47.804;12.116;2023-06-22T12:11:33;35.00;93.30
25280;DHT22;13225;47.804;12.116;2023-06-22T12:13:58;35.00;92.30
25280;DHT22;13225;47.804;12.116;2023-06-22T12:16:28;34.90;92.30
25280;DHT22;13225;47.804;12.116;2023-06-22T12:18:54;34.80;91.60
25280;DHT22;13225;47.804;12.116;2023-06-22T12:21:20;34.80;91.70
25280;DHT22;13225;47.804;12.116;2023-06-22T12:23:45;34.90;92.20
25280;DHT22;13225;47.804;12.116;2023-06-22T12:26:11;35.20;91.10
25280;DHT22;13225;47.804;12.116;2023-06-22T12:28:37;35.20;91.90
25280;DHT22;13225;47.804;12.116;2023-06-22T12:31:02;35.30;92.10
25280;DHT22;13225;47.804;12.116;2023-06-22T12:33:28;35.70;90.80
25280;DHT22;13225;47.804;12.116;2023-06-22T12:35:56;35.80;90.70
25280;DHT22;13225;47.804;12.116;2023-06-22T12:38:21;36.30;90.40
25280;DHT22;13225;47.804;12.116;2023-06-22T12:40:47;36.20;90.80
25280;DHT22;13225;47.804;12.116;2023-06-22T12:43:14;36.30;90.10
25280;DHT22;13225;47.804;12.116;2023-06-22T12:45:40;36.20;88.70
25280;DHT22;13225;47.804;12.116;2023-06-22T12:48:06;36.00;88.30
25280;DHT22;13225;47.804;12.116;2023-06-22T12:50:31;35.80;88.40
25280;DHT22;13225;47.804;12.116;2023-06-22T12:52:57;35.40;89.90
25280;DHT22;13225;47.804;12.116;2023-06-22T12:55:23;35.00;89.40
25280;DHT22;13225;47.804;12.116;2023-06-22T12:57:50;35.00;90.50
25280;DHT22;13225;47.804;12.116;2023-06-22T13:00:15;35.20;90.80
25280;DHT22;13225;47.804;12.116;2023-06-22T13:02:41;35.30;89.60
25280;DHT22;13225;47.804;12.116;2023-06-22T13:05:08;35.40;89.60
25280;DHT22;13225;47.804;12.116;2023-06-22T13:07:34;35.50;89.10
25280;DHT22;13225;47.804;12.116;2023-06-22T13:09:59;35.50;87.20
25280;DHT22;13225;47.804;12.116;2023-06-22T13:12:25;35.30;87.40
25280;DHT22;13225;47.804;12.116;2023-06-22T13:14:51;35.20;87.00
25280;DHT22;13225;47.804;12.116;2023-06-22T13:17:16;35.30;89.10
25280;DHT22;13225;47.804;12.116;2023-06-22T13:19:42;35.40;87.70
25280;DHT22;13225;47.804;12.116;2023-06-22T13:22:34;35.40;86.00
25280;DHT22;13225;47.804;12.116;2023-06-22T13:25:08;35.80;87.10
25280;DHT22;13225;47.804;12.116;2023-06-22T13:27:38;36.00;85.90
25280;DHT22;13225;47.804;12.116;2023-06-22T13:30:04;36.50;85.30
25280;DHT22;13225;47.804;12.116;2023-06-22T13:32:29;36.90;85.10
25280;DHT22;13225;47.804;12.116;2023-06-22T13:34:55;36.90;84.90
25280;DHT22;13225;47.804;12.116;2023-06-22T13:37:20;36.90;85.10
25280;DHT22;13225;47.804;12.116;2023-06-22T13:39:46;36.90;85.80
25280;DHT22;13225;47.804;12.116;2023-06-22T13:42:12;37.20;85.30
25280;DHT22;13225;47.804;12.116;2023-06-22T13:44:37;37.40;85.00
25280;DHT22;13225;47.804;12.116;2023-06-22T13:47:03;37.80;84.90
25280;DHT22;13225;47.804;12.116;2023-06-22T13:49:30;38.10;84.70
25280;DHT22;13225;47.804;12.116;2023-06-22T13:51:55;38.20;83.70
25280;DHT22;13225;47.804;12.116;2023-06-22T13:54:21;38.10;83.40
25280;DHT22;13225;47.804;12.116;2023-06-22T13:56:47;38.00;83.50
25280;DHT22;13225;47.804;12.116;2023-06-22T13:59:12;37.80;85.00
25280;DHT22;13225;47.804;12.116;2023-06-22T14:01:38;37.30;85.40
25280;DHT22;13225;47.804;12.116;2023-06-22T14:04:07;37.20;84.90
25280;DHT22;13225;47.804;12.116;2023-06-22T14:06:32;37.30;85.40
25280;DHT22;13225;47.804;12.116;2023-06-22T14:08:58;37.50;84.80
25280;DHT22;13225;47.804;12.116;2023-06-22T14:11:24;37.40;84.30
25280;DHT22;13225;47.804;12.116;2023-06-22T14:13:50;37.60;83.70
25280;DHT22;13225;47.804;12.116;2023-06-22T14:16:16;38.10;83.40
25280;DHT22;13225;47.804;12.116;2023-06-22T14:18:41;38.90;81.30
25280;DHT22;13225;47.804;12.116;2023-06-22T14:21:07;39.10;80.20
25280;DHT22;13225;47.804;12.116;2023-06-22T14:23:33;39.20;78.90
25280;DHT22;13225;47.804;12.116;2023-06-22T14:25:58;39.30;79.10
25280;DHT22;13225;47.804;12.116;2023-06-22T14:28:24;39.30;78.30
25280;DHT22;13225;47.804;12.116;2023-06-22T14:30:49;39.40;79.30
25280;DHT22;13225;47.804;12.116;2023-06-22T14:33:15;39.80;77.40
25280;DHT22;13225;47.804;12.116;2023-06-22T14:35:41;39.80;77.40
25280;DHT22;13225;47.804;12.116;2023-06-22T14:38:06;40.00;76.10
25280;DHT22;13225;47.804;12.116;2023-06-22T14:40:32;40.00;75.40
25280;DHT22;13225;47.804;12.116;2023-06-22T14:42:57;39.70;74.80
25280;DHT22;13225;47.804;12.116;2023-06-22T14:45:24;39.70;75.20
25280;DHT22;13225;47.804;12.116;2023-06-22T14:47:49;39.90;76.00
25280;DHT22;13225;47.804;12.116;2023-06-22T14:50:15;40.00;74.40
25280;DHT22;13225;47.804;12.116;2023-06-22T14:52:41;40.00;74.20
25280;DHT22;13225;47.804;12.116;2023-06-22T14:55:07;40.00;74.70
25280;DHT22;13225;47.804;12.116;2023-06-22T14:57:33;40.00;74.70
25280;DHT22;13225;47.804;12.116;2023-06-22T14:59:58;40.10;75.10
25280;DHT22;13225;47.804;12.116;2023-06-22T15:02:25;40.00;73.80
25280;DHT22;13225;47.804;12.116;2023-06-22T15:04:50;39.90;74.20
25280;DHT22;13225;47.804;12.116;2023-06-22T15:07:18;39.40;74.00
25280;DHT22;13225;47.804;12.116;2023-06-22T15:09:43;39.20;73.90
25280;DHT22;13225;47.804;12.116;2023-06-22T15:12:10;39.30;74.40
25280;DHT22;13225;47.804;12.116;2023-06-22T15:14:40;39.70;72.80
25280;DHT22;13225;47.804;12.116;2023-06-22T15:17:09;40.00;71.00
25280;DHT22;13225;47.804;12.116;2023-06-22T15:19:37;39.90;70.90
25280;DHT22;13225;47.804;12.116;2023-06-22T15:22:07;39.90;71.60